Newcastle University, New South Wales

3:04 AM AEDT on October 26, 2014 (GMT +1100)
Warabrook | Change Station
CLOSE
Current Station
Personal Weather Station
Location: Warabrook, NEW SOUTH WALES
Elevation: 39 ft
Nearby Weather Stations

Elev 39 ft 32.88 °S, 151.72 °E | Updated 13 minutes ago

Clear
Clear
66.8 °F
Feels Like 66.8 °F
N
0.0
Wind Variable Wind from NNE
Gusts 3.0 mph

Today
High -- | Low -- °F
--% Chance of Precip.
Yesterday
High -- | Low -- °F
Precip. -- in
6:00 AM 7:14 PM
Waxing Crescent, 3% visible
Pressure 29.92 in
Visibility 3.7 miles
Clouds
Dew Point 64 °F
Humidity 91%
Rainfall 0.00 in
Snow Depth Not available.
UV Not available.
Pollen Not available.
Air Quality Not available.
Flu Activity Not available.
SPECI YWLM 251600Z AUTO 01007KT 6000 // NCD 19/18 Q1013

More Conditions Fewer Conditions

Pressure 29.92 in
Visibility 3.7 miles
Clouds
Dew Point 64 °F
Humidity 91%
Rainfall 0.00 in
Snow Depth Not available.
UV Not available.
Pollen Not available.
Air Quality Not available.
Flu Activity Not available.
SPECI YWLM 251600Z AUTO 01007KT 6000 // NCD 19/18 Q1013

More Conditions Fewer Conditions

10-Day Weather Forecast

Almanac

Astronomy

Oct. 26, 2014 Rise Set
Actual Time 6:00 AM AEDT 7:14 PM AEDT
Civil Twilight 5:35 AM AEDT 7:39 PM AEDT
Nautical Twilight 5:04 AM AEDT 8:10 PM AEDT
Astronomical Twilight 4:32 AM AEDT 8:42 PM AEDT
Moon 7:29 AM AEDT (10/26) 9:27 PM AEDT (10/26)
Length of Visible Light 14h 04m
Length of Day
13h 13m
Tomorrow will be 1m 54s longer.
Waxing Crescent, 3% of the Moon is Illuminated
Oct 25
Waxing Crescent
Oct 30
First Quarter
Nov 6
Full
Nov 14
Last Quarter
Nov 22
New

Yesterday's Extremes

Country Highs Country Lows

Community

WunderPhotos

Upload Photos

1,764,884 photos uploaded!

Nearby

Snow Depth

Not available.

Earthquake Activity

City Distance Mag. Time & Date
No recent earthquake activity has been reported nearby.
Minimum magnitude displayed is 2.5.

Coastal Water Temperatures

Place Temperature
No Stations Reporting

Nearby Weather Stations